createdAt,value
2022-10-13T00:01:57.752Z,17.27
2022-10-13T00:07:19.446Z,18.85
2022-10-13T00:12:41.218Z,20.00
2022-10-13T00:18:02.903Z,23.98
2022-10-13T00:23:24.895Z,25.95
2022-10-13T00:28:52.040Z,26.30
2022-10-13T00:34:14.384Z,26.05
2022-10-13T00:39:37.159Z,22.48
2022-10-13T00:45:19.984Z,25.25
2022-10-13T00:50:42.874Z,24.58
2022-10-13T00:56:07.787Z,27.75
2022-10-13T01:01:29.735Z,28.17
2022-10-13T01:06:52.788Z,25.20
2022-10-13T01:12:36.032Z,28.08
2022-10-13T01:18:39.298Z,25.70
2022-10-13T01:24:22.622Z,22.48
2022-10-13T01:30:08.528Z,28.92
2022-10-13T01:35:40.795Z,27.35
2022-10-13T01:41:13.790Z,35.42
2022-10-13T01:46:38.256Z,30.08
2022-10-13T01:52:04.396Z,29.90
2022-10-13T01:57:31.172Z,28.75
2022-10-13T02:03:11.324Z,26.80
2022-10-13T02:08:43.904Z,30.05
2022-10-13T02:14:29.742Z,27.10
2022-10-13T02:19:51.448Z,32.95
2022-10-13T02:25:13.500Z,33.03
2022-10-13T02:30:35.812Z,25.85
2022-10-13T02:35:57.492Z,28.85
2022-10-13T02:41:19.179Z,32.42
2022-10-13T02:46:41.662Z,30.75
2022-10-13T02:52:03.330Z,29.52
2022-10-13T02:57:24.994Z,28.48
2022-10-13T03:02:46.664Z,29.70
2022-10-13T03:08:08.332Z,35.72
2022-10-13T03:13:30.137Z,29.77
2022-10-13T03:18:51.786Z,27.27
2022-10-13T03:24:13.611Z,36.13
2022-10-13T03:29:35.329Z,36.50
2022-10-13T03:34:57.066Z,28.15
2022-10-13T03:40:18.816Z,27.20
2022-10-13T03:45:40.501Z,26.45
2022-10-13T03:51:13.689Z,31.58
2022-10-13T03:56:35.804Z,25.10
2022-10-13T04:01:57.522Z,37.50
2022-10-13T04:07:19.240Z,26.60
2022-10-13T04:12:40.924Z,24.23
2022-10-13T04:18:02.640Z,28.25
2022-10-13T04:23:24.600Z,28.02
2022-10-13T04:28:48.463Z,26.63
2022-10-13T04:34:11.206Z,28.23
2022-10-13T04:39:33.383Z,23.65
2022-10-13T04:44:55.056Z,27.88
2022-10-13T04:50:17.280Z,29.55
2022-10-13T04:55:38.965Z,23.58
2022-10-13T05:01:01.415Z,24.88
2022-10-13T05:06:26.186Z,17.20
2022-10-13T05:11:47.904Z,22.63
2022-10-13T05:17:09.622Z,24.35
2022-10-13T05:22:31.425Z,24.05
2022-10-13T05:27:53.173Z,26.27
2022-10-13T05:33:14.864Z,28.75
2022-10-13T05:38:36.745Z,28.67
2022-10-13T05:44:02.137Z,27.48
2022-10-13T05:49:23.908Z,25.65
2022-10-13T05:54:48.483Z,29.30
2022-10-13T06:00:19.729Z,30.60
2022-10-13T06:05:43.167Z,29.17
2022-10-13T06:11:05.707Z,26.95
2022-10-13T06:16:27.469Z,29.88
2022-10-13T06:21:49.220Z,26.75
2022-10-13T06:27:11.270Z,22.70
2022-10-13T06:32:33.144Z,25.20
2022-10-13T06:37:54.947Z,28.30
2022-10-13T06:43:16.669Z,22.90
2022-10-13T06:48:38.722Z,27.90
2022-10-13T06:54:00.437Z,30.15
2022-10-13T06:59:23.258Z,26.63
2022-10-13T07:04:46.946Z,26.40
2022-10-13T07:10:09.104Z,27.90
2022-10-13T07:15:31.069Z,23.50
2022-10-13T07:20:52.795Z,28.30
2022-10-13T07:26:16.269Z,25.17
2022-10-13T07:31:37.961Z,21.50
2022-10-13T07:36:59.624Z,24.13
2022-10-13T07:42:21.301Z,23.15
2022-10-13T07:47:43.081Z,23.63
2022-10-13T07:53:05.564Z,31.08
2022-10-13T07:58:27.490Z,26.23
2022-10-13T08:03:50.542Z,22.02
2022-10-13T08:09:12.733Z,21.92
2022-10-13T08:14:34.629Z,28.58
2022-10-13T08:19:56.428Z,24.75
2022-10-13T08:25:18.192Z,24.08
2022-10-13T08:30:39.924Z,20.90
2022-10-13T08:36:01.713Z,24.95
2022-10-13T08:41:26.268Z,25.90
2022-10-13T08:47:09.890Z,19.63
2022-10-13T08:52:47.911Z,20.85
2022-10-13T08:58:19.208Z,19.58
2022-10-13T09:03:49.801Z,19.20
2022-10-13T09:09:14.212Z,21.27
2022-10-13T09:14:38.655Z,22.23
2022-10-13T09:20:07.519Z,15.77
2022-10-13T09:25:29.411Z,17.23
2022-10-13T09:31:13.919Z,17.65
2022-10-13T09:36:37.622Z,13.70
2022-10-13T09:42:20.399Z,13.82
2022-10-13T09:47:54.681Z,14.60
2022-10-13T09:53:32.062Z,11.85
2022-10-13T09:59:10.239Z,15.98
2022-10-13T10:04:37.623Z,15.40
2022-10-13T10:10:18.493Z,16.33
2022-10-13T10:15:53.834Z,14.05
2022-10-13T10:21:31.263Z,14.45
2022-10-13T10:27:01.516Z,13.73
2022-10-13T10:32:28.678Z,14.48
2022-10-13T10:38:18.063Z,16.80
2022-10-13T10:43:55.224Z,15.20
2022-10-13T10:49:35.421Z,14.05
2022-10-13T10:55:11.380Z,16.10
2022-10-13T11:00:42.160Z,20.17
2022-10-13T11:06:21.265Z,18.50
2022-10-13T11:11:43.027Z,11.57
2022-10-13T11:17:07.454Z,11.80
2022-10-13T11:22:30.980Z,12.20
2022-10-13T11:27:52.682Z,10.95
2022-10-13T11:33:33.268Z,14.10
2022-10-13T11:39:19.861Z,14.23
2022-10-13T11:44:55.652Z,13.68
2022-10-13T11:50:28.732Z,15.82
2022-10-13T11:56:01.434Z,10.57
2022-10-13T12:01:23.158Z,9.77
2022-10-13T12:06:48.434Z,9.18
2022-10-13T12:12:16.690Z,12.23
2022-10-13T12:17:38.915Z,9.95
2022-10-13T12:23:00.799Z,7.90
2022-10-13T12:28:23.888Z,9.57
2022-10-13T12:33:55.794Z,8.40
2022-10-13T12:39:18.806Z,9.13
2022-10-13T12:44:41.023Z,9.48
2022-10-13T12:50:21.595Z,9.52
2022-10-13T12:55:56.277Z,6.88
2022-10-13T13:01:27.233Z,12.52
2022-10-13T13:07:03.772Z,8.73
2022-10-13T13:12:27.882Z,10.13
2022-10-13T13:17:58.813Z,12.38
2022-10-13T13:23:21.897Z,9.68
2022-10-13T13:28:55.396Z,8.90
2022-10-13T13:34:18.842Z,11.82
2022-10-13T13:39:42.834Z,10.05
2022-10-13T13:45:04.853Z,5.90
2022-10-13T13:50:32.254Z,8.52
2022-10-13T13:55:54.037Z,11.88
2022-10-13T14:01:16.089Z,12.38
2022-10-13T14:06:38.025Z,9.82
2022-10-13T14:11:59.946Z,7.75
2022-10-13T14:17:21.617Z,15.77
2022-10-13T14:22:43.372Z,11.45
2022-10-13T14:28:05.104Z,13.60
2022-10-13T14:33:26.806Z,11.60
2022-10-13T14:38:48.498Z,11.50
2022-10-13T14:44:12.241Z,12.45
2022-10-13T14:49:34.009Z,8.15
2022-10-13T14:54:55.698Z,12.45
2022-10-13T15:00:17.568Z,13.57
2022-10-13T15:05:39.350Z,12.15
2022-10-13T15:11:02.835Z,16.50
2022-10-13T15:16:27.949Z,12.57
2022-10-13T15:21:50.013Z,16.25
2022-10-13T15:27:11.733Z,11.65
2022-10-13T15:32:33.445Z,10.20
2022-10-13T15:37:55.230Z,11.63
2022-10-13T15:43:18.000Z,14.52
2022-10-13T15:48:39.876Z,19.55
2022-10-13T15:54:01.529Z,13.07
2022-10-13T15:59:25.382Z,12.75
2022-10-13T16:04:47.073Z,14.10
2022-10-13T16:10:10.696Z,17.75
2022-10-13T16:15:32.417Z,13.95
2022-10-13T16:20:54.077Z,17.25
2022-10-13T16:26:17.414Z,14.57
2022-10-13T16:31:39.251Z,18.33
2022-10-13T16:37:00.963Z,16.48
2022-10-13T16:42:22.702Z,15.40
2022-10-13T16:47:44.519Z,17.50
2022-10-13T16:53:06.221Z,25.48
2022-10-13T16:58:28.105Z,14.90
2022-10-13T17:03:50.825Z,22.50
2022-10-13T17:09:12.622Z,16.45
2022-10-13T17:14:34.435Z,18.85
2022-10-13T17:19:56.275Z,19.90
2022-10-13T17:25:17.961Z,17.98
2022-10-13T17:30:39.825Z,22.65
2022-10-13T17:36:04.844Z,23.13
2022-10-13T17:41:26.562Z,24.05
2022-10-13T17:46:49.928Z,23.75
2022-10-13T17:52:11.682Z,24.88
2022-10-13T17:57:33.378Z,26.55
2022-10-13T18:02:55.220Z,20.60
2022-10-13T18:08:17.416Z,23.52
2022-10-13T18:13:39.264Z,23.02
2022-10-13T18:19:01.256Z,26.05
2022-10-13T18:24:24.630Z,20.13
2022-10-13T18:29:46.293Z,28.88
2022-10-13T18:35:08.370Z,26.23
2022-10-13T18:40:30.281Z,26.02
2022-10-13T18:45:51.998Z,30.52
2022-10-13T18:51:16.273Z,19.65
2022-10-13T18:56:38.298Z,25.25
2022-10-13T19:01:59.962Z,24.38
2022-10-13T19:07:21.920Z,22.65
2022-10-13T19:12:43.858Z,24.10
2022-10-13T19:18:06.224Z,26.35
2022-10-13T19:23:28.025Z,26.52
2022-10-13T19:28:54.142Z,27.35
2022-10-13T19:34:15.926Z,27.58
2022-10-13T19:39:38.428Z,23.70
2022-10-13T19:45:02.137Z,28.50
2022-10-13T19:50:23.833Z,24.25
2022-10-13T19:55:47.649Z,16.70
2022-10-13T20:01:09.458Z,23.13
2022-10-13T20:06:31.351Z,26.25
2022-10-13T20:11:53.041Z,21.00
2022-10-13T20:17:14.736Z,22.10
2022-10-13T20:22:36.517Z,20.83
2022-10-13T20:27:58.275Z,24.33
2022-10-13T20:33:20.043Z,20.38
2022-10-13T20:38:41.830Z,23.52
2022-10-13T20:44:03.590Z,21.15
2022-10-13T20:49:25.273Z,18.52
2022-10-13T20:54:46.974Z,31.67
2022-10-13T21:00:09.608Z,20.55
2022-10-13T21:05:32.241Z,22.23
2022-10-13T21:10:54.101Z,18.02
2022-10-13T21:16:24.162Z,18.80
2022-10-13T21:21:46.663Z,16.83
2022-10-13T21:27:08.403Z,21.67
2022-10-13T21:32:30.473Z,20.27
2022-10-13T21:37:52.182Z,18.33
2022-10-13T21:43:13.893Z,18.23
2022-10-13T21:48:36.488Z,26.75
2022-10-13T21:54:00.835Z,15.77
2022-10-13T21:59:22.541Z,20.48
2022-10-13T22:04:44.245Z,15.23
2022-10-13T22:10:06.019Z,15.45
2022-10-13T22:15:27.684Z,12.77
2022-10-13T22:20:49.347Z,10.90
2022-10-13T22:26:11.983Z,11.35
2022-10-13T22:31:34.365Z,19.20
2022-10-13T22:36:56.042Z,14.75
2022-10-13T22:42:17.717Z,11.25
2022-10-13T22:47:39.402Z,11.23
2022-10-13T22:53:01.089Z,11.63
2022-10-13T22:58:22.814Z,15.15
2022-10-13T23:03:48.303Z,16.38
2022-10-13T23:09:12.764Z,15.45
2022-10-13T23:14:34.418Z,9.73
2022-10-13T23:19:56.192Z,14.75
2022-10-13T23:25:17.841Z,15.30
2022-10-13T23:30:39.519Z,14.07
2022-10-13T23:36:02.588Z,15.10
2022-10-13T23:41:24.320Z,11.75
2022-10-13T23:46:45.976Z,11.32
2022-10-13T23:52:10.961Z,11.35
2022-10-13T23:57:32.940Z,12.55
